sensor_id;sensor_type;location;lat;lon;timestamp;P1;durP1;ratioP1;P2;durP2;ratioP2
4061;SDS011;2046;47.064;15.456;2022-12-18T00:01:40;3.15;;;2.83;;
4061;SDS011;2046;47.064;15.456;2022-12-18T00:04:11;2.97;;;2.63;;
4061;SDS011;2046;47.064;15.456;2022-12-18T00:06:41;4.22;;;2.85;;
4061;SDS011;2046;47.064;15.456;2022-12-18T00:09:09;3.17;;;2.38;;
4061;SDS011;2046;47.064;15.456;2022-12-18T00:11:36;4.88;;;3.08;;
4061;SDS011;2046;47.064;15.456;2022-12-18T00:14:02;4.38;;;3.00;;
4061;SDS011;2046;47.064;15.456;2022-12-18T00:16:29;4.10;;;2.53;;
4061;SDS011;2046;47.064;15.456;2022-12-18T00:19:01;2.78;;;2.20;;
4061;SDS011;2046;47.064;15.456;2022-12-18T00:21:28;3.55;;;2.70;;
4061;SDS011;2046;47.064;15.456;2022-12-18T00:23:55;3.75;;;2.70;;
4061;SDS011;2046;47.064;15.456;2022-12-18T00:26:22;3.33;;;2.80;;
4061;SDS011;2046;47.064;15.456;2022-12-18T00:28:49;2.47;;;2.13;;
4061;SDS011;2046;47.064;15.456;2022-12-18T00:31:18;3.78;;;2.75;;
4061;SDS011;2046;47.064;15.456;2022-12-18T00:33:45;4.95;;;2.70;;
4061;SDS011;2046;47.064;15.456;2022-12-18T00:36:15;5.18;;;2.65;;
4061;SDS011;2046;47.064;15.456;2022-12-18T00:38:43;3.28;;;2.65;;
4061;SDS011;2046;47.064;15.456;2022-12-18T00:41:10;3.60;;;2.70;;
4061;SDS011;2046;47.064;15.456;2022-12-18T00:43:37;3.78;;;2.83;;
4061;SDS011;2046;47.064;15.456;2022-12-18T00:46:04;4.00;;;2.45;;
4061;SDS011;2046;47.064;15.456;2022-12-18T00:48:31;2.95;;;2.67;;
4061;SDS011;2046;47.064;15.456;2022-12-18T00:50:58;5.32;;;3.15;;
4061;SDS011;2046;47.064;15.456;2022-12-18T00:53:25;3.95;;;2.70;;
4061;SDS011;2046;47.064;15.456;2022-12-18T00:55:51;3.50;;;2.95;;
4061;SDS011;2046;47.064;15.456;2022-12-18T00:58:17;4.15;;;2.78;;
4061;SDS011;2046;47.064;15.456;2022-12-18T01:00:44;2.35;;;2.13;;
4061;SDS011;2046;47.064;15.456;2022-12-18T01:03:12;3.33;;;2.70;;
4061;SDS011;2046;47.064;15.456;2022-12-18T01:05:40;4.70;;;2.55;;
4061;SDS011;2046;47.064;15.456;2022-12-18T01:08:07;3.42;;;2.40;;
4061;SDS011;2046;47.064;15.456;2022-12-18T01:10:33;3.85;;;2.60;;
4061;SDS011;2046;47.064;15.456;2022-12-18T01:13:00;5.43;;;2.65;;
4061;SDS011;2046;47.064;15.456;2022-12-18T01:15:26;4.07;;;2.60;;
4061;SDS011;2046;47.064;15.456;2022-12-18T01:17:53;3.05;;;2.67;;
4061;SDS011;2046;47.064;15.456;2022-12-18T01:20:20;2.05;;;1.85;;
4061;SDS011;2046;47.064;15.456;2022-12-18T01:22:46;3.17;;;2.40;;
4061;SDS011;2046;47.064;15.456;2022-12-18T01:25:13;2.90;;;2.47;;
4061;SDS011;2046;47.064;15.456;2022-12-18T01:27:40;4.20;;;2.92;;
4061;SDS011;2046;47.064;15.456;2022-12-18T01:30:07;3.47;;;2.58;;
4061;SDS011;2046;47.064;15.456;2022-12-18T01:32:33;2.90;;;2.30;;
4061;SDS011;2046;47.064;15.456;2022-12-18T01:35:01;2.55;;;2.30;;
4061;SDS011;2046;47.064;15.456;2022-12-18T01:37:28;3.50;;;2.72;;
4061;SDS011;2046;47.064;15.456;2022-12-18T01:39:55;3.42;;;2.67;;
4061;SDS011;2046;47.064;15.456;2022-12-18T01:42:22;3.35;;;2.35;;
4061;SDS011;2046;47.064;15.456;2022-12-18T01:47:18;3.25;;;2.53;;
4061;SDS011;2046;47.064;15.456;2022-12-18T01:49:46;3.00;;;2.65;;
4061;SDS011;2046;47.064;15.456;2022-12-18T01:52:13;3.33;;;2.63;;
4061;SDS011;2046;47.064;15.456;2022-12-18T01:54:39;3.13;;;2.72;;
4061;SDS011;2046;47.064;15.456;2022-12-18T01:57:06;3.80;;;2.45;;
4061;SDS011;2046;47.064;15.456;2022-12-18T01:59:33;3.15;;;2.63;;
4061;SDS011;2046;47.064;15.456;2022-12-18T02:02:01;3.80;;;3.10;;
4061;SDS011;2046;47.064;15.456;2022-12-18T02:04:29;5.25;;;2.40;;
4061;SDS011;2046;47.064;15.456;2022-12-18T02:09:48;3.45;;;2.70;;
4061;SDS011;2046;47.064;15.456;2022-12-18T02:12:22;2.70;;;2.40;;
4061;SDS011;2046;47.064;15.456;2022-12-18T02:15:07;4.18;;;2.65;;
4061;SDS011;2046;47.064;15.456;2022-12-18T02:17:55;2.63;;;2.22;;
4061;SDS011;2046;47.064;15.456;2022-12-18T02:28:51;2.95;;;2.22;;
4061;SDS011;2046;47.064;15.456;2022-12-18T02:31:23;3.45;;;2.42;;
4061;SDS011;2046;47.064;15.456;2022-12-18T02:33:51;3.22;;;2.35;;
4061;SDS011;2046;47.064;15.456;2022-12-18T02:36:18;2.88;;;2.38;;
4061;SDS011;2046;47.064;15.456;2022-12-18T02:38:47;3.08;;;2.28;;
4061;SDS011;2046;47.064;15.456;2022-12-18T02:41:14;4.05;;;2.20;;
4061;SDS011;2046;47.064;15.456;2022-12-18T02:43:46;3.35;;;2.42;;
4061;SDS011;2046;47.064;15.456;2022-12-18T02:46:33;3.67;;;2.50;;
4061;SDS011;2046;47.064;15.456;2022-12-18T02:49:44;2.60;;;2.30;;
4061;SDS011;2046;47.064;15.456;2022-12-18T02:51:52;3.40;;;2.60;;
4061;SDS011;2046;47.064;15.456;2022-12-18T02:54:26;2.47;;;2.28;;
4061;SDS011;2046;47.064;15.456;2022-12-18T02:56:55;3.08;;;2.40;;
4061;SDS011;2046;47.064;15.456;2022-12-18T02:59:31;2.70;;;2.22;;
4061;SDS011;2046;47.064;15.456;2022-12-18T03:04:50;2.80;;;2.35;;
4061;SDS011;2046;47.064;15.456;2022-12-18T03:07:21;2.50;;;2.30;;
4061;SDS011;2046;47.064;15.456;2022-12-18T03:09:50;2.58;;;2.17;;
4061;SDS011;2046;47.064;15.456;2022-12-18T03:12:24;2.90;;;2.35;;
4061;SDS011;2046;47.064;15.456;2022-12-18T03:14:57;5.30;;;2.70;;
4061;SDS011;2046;47.064;15.456;2022-12-18T03:17:26;3.83;;;2.40;;
4061;SDS011;2046;47.064;15.456;2022-12-18T03:19:53;3.30;;;2.70;;
4061;SDS011;2046;47.064;15.456;2022-12-18T03:22:23;2.65;;;2.25;;
4061;SDS011;2046;47.064;15.456;2022-12-18T03:24:50;3.42;;;2.60;;
4061;SDS011;2046;47.064;15.456;2022-12-18T03:27:18;3.92;;;2.40;;
4061;SDS011;2046;47.064;15.456;2022-12-18T03:29:50;2.92;;;2.40;;
4061;SDS011;2046;47.064;15.456;2022-12-18T03:32:23;2.53;;;2.33;;
4061;SDS011;2046;47.064;15.456;2022-12-18T03:34:51;2.70;;;2.42;;
4061;SDS011;2046;47.064;15.456;2022-12-18T03:37:19;3.80;;;2.67;;
4061;SDS011;2046;47.064;15.456;2022-12-18T03:39:46;2.75;;;2.33;;
4061;SDS011;2046;47.064;15.456;2022-12-18T03:47:28;2.83;;;2.45;;
4061;SDS011;2046;47.064;15.456;2022-12-18T03:49:58;3.13;;;2.42;;
4061;SDS011;2046;47.064;15.456;2022-12-18T03:54:58;2.70;;;2.20;;
4061;SDS011;2046;47.064;15.456;2022-12-18T03:57:27;3.17;;;2.70;;
4061;SDS011;2046;47.064;15.456;2022-12-18T03:59:56;3.08;;;2.33;;
4061;SDS011;2046;47.064;15.456;2022-12-18T04:02:23;4.25;;;2.28;;
4061;SDS011;2046;47.064;15.456;2022-12-18T04:04:51;4.35;;;2.63;;
4061;SDS011;2046;47.064;15.456;2022-12-18T04:07:20;3.65;;;2.45;;
4061;SDS011;2046;47.064;15.456;2022-12-18T04:09:47;2.67;;;2.20;;
4061;SDS011;2046;47.064;15.456;2022-12-18T04:12:14;2.35;;;2.10;;
4061;SDS011;2046;47.064;15.456;2022-12-18T04:14:41;3.28;;;2.42;;
4061;SDS011;2046;47.064;15.456;2022-12-18T04:17:07;2.83;;;2.53;;
4061;SDS011;2046;47.064;15.456;2022-12-18T04:19:34;3.15;;;2.50;;
4061;SDS011;2046;47.064;15.456;2022-12-18T04:22:00;3.75;;;2.90;;
4061;SDS011;2046;47.064;15.456;2022-12-18T04:24:27;4.35;;;2.28;;
4061;SDS011;2046;47.064;15.456;2022-12-18T04:26:53;4.03;;;2.40;;
4061;SDS011;2046;47.064;15.456;2022-12-18T04:29:20;5.65;;;2.90;;
4061;SDS011;2046;47.064;15.456;2022-12-18T04:31:46;3.75;;;2.53;;
4061;SDS011;2046;47.064;15.456;2022-12-18T04:34:13;2.75;;;2.30;;
4061;SDS011;2046;47.064;15.456;2022-12-18T04:36:39;3.47;;;2.45;;
4061;SDS011;2046;47.064;15.456;2022-12-18T04:39:06;3.38;;;2.47;;
4061;SDS011;2046;47.064;15.456;2022-12-18T04:41:32;2.85;;;2.53;;
4061;SDS011;2046;47.064;15.456;2022-12-18T04:43:59;3.97;;;2.30;;
4061;SDS011;2046;47.064;15.456;2022-12-18T04:46:26;5.10;;;2.97;;
4061;SDS011;2046;47.064;15.456;2022-12-18T04:48:53;2.70;;;2.28;;
4061;SDS011;2046;47.064;15.456;2022-12-18T04:51:19;3.50;;;2.50;;
4061;SDS011;2046;47.064;15.456;2022-12-18T04:53:52;3.53;;;2.78;;
4061;SDS011;2046;47.064;15.456;2022-12-18T04:56:19;3.22;;;2.72;;
4061;SDS011;2046;47.064;15.456;2022-12-18T04:58:45;2.97;;;2.50;;
4061;SDS011;2046;47.064;15.456;2022-12-18T05:01:13;2.78;;;2.38;;
4061;SDS011;2046;47.064;15.456;2022-12-18T05:03:40;2.80;;;2.60;;
4061;SDS011;2046;47.064;15.456;2022-12-18T05:06:07;3.15;;;2.42;;
4061;SDS011;2046;47.064;15.456;2022-12-18T05:08:34;4.63;;;2.70;;
4061;SDS011;2046;47.064;15.456;2022-12-18T05:11:01;4.03;;;2.58;;
4061;SDS011;2046;47.064;15.456;2022-12-18T05:13:28;2.95;;;2.53;;
4061;SDS011;2046;47.064;15.456;2022-12-18T05:15:55;2.80;;;2.25;;
4061;SDS011;2046;47.064;15.456;2022-12-18T05:18:22;3.35;;;2.35;;
4061;SDS011;2046;47.064;15.456;2022-12-18T05:20:49;3.45;;;2.50;;
4061;SDS011;2046;47.064;15.456;2022-12-18T05:23:16;2.60;;;2.35;;
4061;SDS011;2046;47.064;15.456;2022-12-18T05:25:46;4.18;;;2.72;;
4061;SDS011;2046;47.064;15.456;2022-12-18T05:28:12;3.10;;;2.50;;
4061;SDS011;2046;47.064;15.456;2022-12-18T05:30:39;3.15;;;2.72;;
4061;SDS011;2046;47.064;15.456;2022-12-18T05:33:05;3.22;;;2.70;;
4061;SDS011;2046;47.064;15.456;2022-12-18T05:35:32;4.22;;;2.60;;
4061;SDS011;2046;47.064;15.456;2022-12-18T05:37:58;3.10;;;2.80;;
4061;SDS011;2046;47.064;15.456;2022-12-18T05:40:25;4.35;;;2.67;;
4061;SDS011;2046;47.064;15.456;2022-12-18T05:42:52;3.08;;;2.42;;
4061;SDS011;2046;47.064;15.456;2022-12-18T05:45:19;3.45;;;2.40;;
4061;SDS011;2046;47.064;15.456;2022-12-18T05:47:46;3.17;;;2.47;;
4061;SDS011;2046;47.064;15.456;2022-12-18T05:50:12;3.42;;;2.70;;
4061;SDS011;2046;47.064;15.456;2022-12-18T05:52:39;3.33;;;2.63;;
4061;SDS011;2046;47.064;15.456;2022-12-18T05:55:05;3.10;;;2.65;;
4061;SDS011;2046;47.064;15.456;2022-12-18T05:57:32;2.65;;;2.42;;
4061;SDS011;2046;47.064;15.456;2022-12-18T05:59:58;3.13;;;2.25;;
4061;SDS011;2046;47.064;15.456;2022-12-18T06:02:25;3.55;;;2.55;;
4061;SDS011;2046;47.064;15.456;2022-12-18T06:04:52;2.85;;;2.60;;
4061;SDS011;2046;47.064;15.456;2022-12-18T06:07:18;3.35;;;2.40;;
4061;SDS011;2046;47.064;15.456;2022-12-18T06:09:45;2.33;;;1.95;;
4061;SDS011;2046;47.064;15.456;2022-12-18T06:12:11;2.58;;;2.30;;
4061;SDS011;2046;47.064;15.456;2022-12-18T06:14:38;4.50;;;3.20;;
4061;SDS011;2046;47.064;15.456;2022-12-18T06:17:05;3.17;;;2.60;;
4061;SDS011;2046;47.064;15.456;2022-12-18T06:19:32;3.40;;;2.70;;
4061;SDS011;2046;47.064;15.456;2022-12-18T06:21:59;3.17;;;2.65;;
4061;SDS011;2046;47.064;15.456;2022-12-18T06:24:25;3.65;;;2.80;;
4061;SDS011;2046;47.064;15.456;2022-12-18T06:26:52;4.15;;;2.90;;
4061;SDS011;2046;47.064;15.456;2022-12-18T06:29:19;3.92;;;2.70;;
4061;SDS011;2046;47.064;15.456;2022-12-18T06:31:45;3.75;;;2.90;;
4061;SDS011;2046;47.064;15.456;2022-12-18T06:34:12;3.92;;;3.05;;
4061;SDS011;2046;47.064;15.456;2022-12-18T06:36:42;4.40;;;2.53;;
4061;SDS011;2046;47.064;15.456;2022-12-18T06:39:08;3.83;;;2.75;;
4061;SDS011;2046;47.064;15.456;2022-12-18T06:41:35;3.45;;;2.88;;
4061;SDS011;2046;47.064;15.456;2022-12-18T06:44:01;3.67;;;2.60;;
4061;SDS011;2046;47.064;15.456;2022-12-18T06:46:28;2.97;;;2.35;;
4061;SDS011;2046;47.064;15.456;2022-12-18T06:48:54;3.50;;;2.58;;
4061;SDS011;2046;47.064;15.456;2022-12-18T06:51:22;3.22;;;2.67;;
4061;SDS011;2046;47.064;15.456;2022-12-18T06:53:49;4.40;;;2.78;;
4061;SDS011;2046;47.064;15.456;2022-12-18T06:56:16;3.33;;;2.65;;
4061;SDS011;2046;47.064;15.456;2022-12-18T06:58:42;3.72;;;3.05;;
4061;SDS011;2046;47.064;15.456;2022-12-18T07:01:10;4.22;;;3.00;;
4061;SDS011;2046;47.064;15.456;2022-12-18T07:03:37;2.88;;;2.60;;
4061;SDS011;2046;47.064;15.456;2022-12-18T07:06:05;3.92;;;2.63;;
4061;SDS011;2046;47.064;15.456;2022-12-18T07:08:32;3.22;;;2.33;;
4061;SDS011;2046;47.064;15.456;2022-12-18T07:10:59;3.08;;;2.63;;
4061;SDS011;2046;47.064;15.456;2022-12-18T07:13:28;3.65;;;3.00;;
4061;SDS011;2046;47.064;15.456;2022-12-18T07:15:55;2.75;;;2.47;;
4061;SDS011;2046;47.064;15.456;2022-12-18T07:18:22;4.28;;;2.92;;
4061;SDS011;2046;47.064;15.456;2022-12-18T07:20:48;4.07;;;2.72;;
4061;SDS011;2046;47.064;15.456;2022-12-18T07:23:15;3.30;;;2.95;;
4061;SDS011;2046;47.064;15.456;2022-12-18T07:25:41;3.95;;;2.80;;
4061;SDS011;2046;47.064;15.456;2022-12-18T07:28:08;3.28;;;2.92;;
4061;SDS011;2046;47.064;15.456;2022-12-18T07:30:42;4.47;;;3.20;;
4061;SDS011;2046;47.064;15.456;2022-12-18T07:33:08;4.63;;;2.97;;
4061;SDS011;2046;47.064;15.456;2022-12-18T07:35:38;3.83;;;2.97;;
4061;SDS011;2046;47.064;15.456;2022-12-18T07:38:05;4.07;;;3.03;;
4061;SDS011;2046;47.064;15.456;2022-12-18T07:40:32;5.25;;;3.30;;
4061;SDS011;2046;47.064;15.456;2022-12-18T07:42:58;4.72;;;3.30;;
4061;SDS011;2046;47.064;15.456;2022-12-18T07:45:25;4.25;;;2.78;;
4061;SDS011;2046;47.064;15.456;2022-12-18T07:47:52;3.25;;;2.47;;
4061;SDS011;2046;47.064;15.456;2022-12-18T07:50:18;3.38;;;2.78;;
4061;SDS011;2046;47.064;15.456;2022-12-18T07:52:45;3.38;;;2.80;;
4061;SDS011;2046;47.064;15.456;2022-12-18T07:55:11;3.70;;;2.70;;
4061;SDS011;2046;47.064;15.456;2022-12-18T07:57:38;3.50;;;2.88;;
4061;SDS011;2046;47.064;15.456;2022-12-18T08:00:25;4.47;;;3.20;;
4061;SDS011;2046;47.064;15.456;2022-12-18T08:02:51;3.92;;;3.28;;
4061;SDS011;2046;47.064;15.456;2022-12-18T08:05:18;5.43;;;2.97;;
4061;SDS011;2046;47.064;15.456;2022-12-18T08:07:45;5.03;;;2.95;;
4061;SDS011;2046;47.064;15.456;2022-12-18T08:10:11;3.97;;;3.00;;
4061;SDS011;2046;47.064;15.456;2022-12-18T08:12:38;4.28;;;3.15;;
4061;SDS011;2046;47.064;15.456;2022-12-18T08:15:04;4.85;;;3.47;;
4061;SDS011;2046;47.064;15.456;2022-12-18T08:17:31;3.33;;;2.80;;
4061;SDS011;2046;47.064;15.456;2022-12-18T08:19:58;4.07;;;3.20;;
4061;SDS011;2046;47.064;15.456;2022-12-18T08:22:24;3.38;;;3.00;;
4061;SDS011;2046;47.064;15.456;2022-12-18T08:24:51;4.55;;;3.30;;
4061;SDS011;2046;47.064;15.456;2022-12-18T08:27:17;3.80;;;3.00;;
4061;SDS011;2046;47.064;15.456;2022-12-18T08:29:55;3.53;;;2.75;;
4061;SDS011;2046;47.064;15.456;2022-12-18T08:32:22;4.05;;;3.05;;
4061;SDS011;2046;47.064;15.456;2022-12-18T08:34:49;5.10;;;3.30;;
4061;SDS011;2046;47.064;15.456;2022-12-18T08:37:15;4.22;;;3.03;;
4061;SDS011;2046;47.064;15.456;2022-12-18T08:39:42;4.60;;;3.20;;
4061;SDS011;2046;47.064;15.456;2022-12-18T08:42:09;4.82;;;3.25;;
4061;SDS011;2046;47.064;15.456;2022-12-18T08:44:53;5.10;;;3.10;;
4061;SDS011;2046;47.064;15.456;2022-12-18T08:47:20;5.07;;;3.42;;
4061;SDS011;2046;47.064;15.456;2022-12-18T08:49:47;4.05;;;3.38;;
4061;SDS011;2046;47.064;15.456;2022-12-18T08:52:16;3.97;;;3.20;;
4061;SDS011;2046;47.064;15.456;2022-12-18T08:54:42;6.32;;;3.42;;
4061;SDS011;2046;47.064;15.456;2022-12-18T08:57:09;6.18;;;3.60;;
4061;SDS011;2046;47.064;15.456;2022-12-18T08:59:35;4.18;;;3.25;;
4061;SDS011;2046;47.064;15.456;2022-12-18T09:02:02;5.20;;;3.83;;
4061;SDS011;2046;47.064;15.456;2022-12-18T09:04:29;4.90;;;3.45;;
4061;SDS011;2046;47.064;15.456;2022-12-18T09:06:55;5.40;;;3.83;;
4061;SDS011;2046;47.064;15.456;2022-12-18T09:09:22;6.43;;;3.65;;
4061;SDS011;2046;47.064;15.456;2022-12-18T09:11:48;5.07;;;3.78;;
4061;SDS011;2046;47.064;15.456;2022-12-18T09:14:15;4.70;;;3.53;;
4061;SDS011;2046;47.064;15.456;2022-12-18T09:16:41;4.75;;;3.72;;
4061;SDS011;2046;47.064;15.456;2022-12-18T09:19:08;4.60;;;3.30;;
4061;SDS011;2046;47.064;15.456;2022-12-18T09:21:37;5.05;;;3.90;;
4061;SDS011;2046;47.064;15.456;2022-12-18T09:24:14;4.70;;;3.60;;
4061;SDS011;2046;47.064;15.456;2022-12-18T09:26:41;5.03;;;3.55;;
4061;SDS011;2046;47.064;15.456;2022-12-18T09:29:12;4.82;;;3.72;;
4061;SDS011;2046;47.064;15.456;2022-12-18T09:31:40;4.95;;;2.88;;
4061;SDS011;2046;47.064;15.456;2022-12-18T09:34:06;7.18;;;3.85;;
4061;SDS011;2046;47.064;15.456;2022-12-18T09:36:33;4.95;;;3.95;;
4061;SDS011;2046;47.064;15.456;2022-12-18T09:39:00;5.35;;;3.90;;
4061;SDS011;2046;47.064;15.456;2022-12-18T09:41:43;6.57;;;4.18;;
4061;SDS011;2046;47.064;15.456;2022-12-18T09:44:18;5.82;;;4.35;;
4061;SDS011;2046;47.064;15.456;2022-12-18T09:46:54;6.55;;;3.95;;
4061;SDS011;2046;47.064;15.456;2022-12-18T09:49:25;5.65;;;4.10;;
4061;SDS011;2046;47.064;15.456;2022-12-18T09:51:54;5.28;;;3.80;;
4061;SDS011;2046;47.064;15.456;2022-12-18T09:54:23;6.07;;;3.97;;
4061;SDS011;2046;47.064;15.456;2022-12-18T09:56:52;4.97;;;4.00;;
4061;SDS011;2046;47.064;15.456;2022-12-18T09:59:33;6.10;;;4.10;;
4061;SDS011;2046;47.064;15.456;2022-12-18T10:02:23;6.78;;;4.70;;
4061;SDS011;2046;47.064;15.456;2022-12-18T10:05:05;5.32;;;3.97;;
4061;SDS011;2046;47.064;15.456;2022-12-18T10:16:00;6.40;;;4.63;;
4061;SDS011;2046;47.064;15.456;2022-12-18T10:18:04;7.32;;;4.60;;
4061;SDS011;2046;47.064;15.456;2022-12-18T10:20:38;8.75;;;4.65;;
4061;SDS011;2046;47.064;15.456;2022-12-18T10:23:15;7.05;;;4.43;;
4061;SDS011;2046;47.064;15.456;2022-12-18T10:25:53;6.10;;;4.30;;
4061;SDS011;2046;47.064;15.456;2022-12-18T10:28:21;6.70;;;4.35;;
4061;SDS011;2046;47.064;15.456;2022-12-18T10:30:49;6.55;;;4.68;;
4061;SDS011;2046;47.064;15.456;2022-12-18T10:33:19;8.20;;;4.80;;
4061;SDS011;2046;47.064;15.456;2022-12-18T10:35:47;7.80;;;5.05;;
4061;SDS011;2046;47.064;15.456;2022-12-18T10:40:55;9.07;;;4.85;;
4061;SDS011;2046;47.064;15.456;2022-12-18T10:43:23;8.43;;;4.85;;
4061;SDS011;2046;47.064;15.456;2022-12-18T10:46:04;6.50;;;4.68;;
4061;SDS011;2046;47.064;15.456;2022-12-18T10:48:33;9.70;;;5.38;;
4061;SDS011;2046;47.064;15.456;2022-12-18T10:51:00;7.13;;;4.82;;
4061;SDS011;2046;47.064;15.456;2022-12-18T10:53:37;7.35;;;4.82;;
4061;SDS011;2046;47.064;15.456;2022-12-18T10:56:06;8.73;;;5.35;;
4061;SDS011;2046;47.064;15.456;2022-12-18T11:01:09;6.97;;;4.50;;
4061;SDS011;2046;47.064;15.456;2022-12-18T11:03:46;7.75;;;4.93;;
4061;SDS011;2046;47.064;15.456;2022-12-18T11:06:17;7.00;;;5.15;;
4061;SDS011;2046;47.064;15.456;2022-12-18T11:08:56;8.38;;;4.75;;
4061;SDS011;2046;47.064;15.456;2022-12-18T11:11:24;9.02;;;4.60;;
4061;SDS011;2046;47.064;15.456;2022-12-18T11:16:42;7.10;;;4.78;;
4061;SDS011;2046;47.064;15.456;2022-12-18T11:19:33;8.35;;;5.15;;
4061;SDS011;2046;47.064;15.456;2022-12-18T11:22:00;7.50;;;4.95;;
4061;SDS011;2046;47.064;15.456;2022-12-18T11:24:31;7.55;;;5.20;;
4061;SDS011;2046;47.064;15.456;2022-12-18T11:26:58;6.13;;;4.68;;
4061;SDS011;2046;47.064;15.456;2022-12-18T11:29:31;8.50;;;4.88;;
4061;SDS011;2046;47.064;15.456;2022-12-18T11:34:59;9.32;;;5.65;;
4061;SDS011;2046;47.064;15.456;2022-12-18T11:37:27;7.13;;;4.60;;
4061;SDS011;2046;47.064;15.456;2022-12-18T11:40:03;9.00;;;5.28;;
4061;SDS011;2046;47.064;15.456;2022-12-18T11:42:38;9.23;;;5.57;;
4061;SDS011;2046;47.064;15.456;2022-12-18T11:51:08;7.45;;;4.85;;
4061;SDS011;2046;47.064;15.456;2022-12-18T11:53:10;9.60;;;5.63;;
4061;SDS011;2046;47.064;15.456;2022-12-18T12:01:06;7.68;;;5.38;;
4061;SDS011;2046;47.064;15.456;2022-12-18T12:03:45;11.10;;;6.32;;
4061;SDS011;2046;47.064;15.456;2022-12-18T12:14:13;9.10;;;5.93;;
4061;SDS011;2046;47.064;15.456;2022-12-18T12:19:36;9.63;;;6.28;;
4061;SDS011;2046;47.064;15.456;2022-12-18T12:25:11;11.25;;;6.25;;
4061;SDS011;2046;47.064;15.456;2022-12-18T12:40:26;9.15;;;5.80;;
4061;SDS011;2046;47.064;15.456;2022-12-18T12:46:16;10.43;;;5.65;;
4061;SDS011;2046;47.064;15.456;2022-12-18T12:51:22;8.85;;;5.70;;
4061;SDS011;2046;47.064;15.456;2022-12-18T12:53:49;9.60;;;6.07;;
4061;SDS011;2046;47.064;15.456;2022-12-18T12:56:18;10.43;;;6.13;;
4061;SDS011;2046;47.064;15.456;2022-12-18T12:59:00;10.10;;;6.07;;
4061;SDS011;2046;47.064;15.456;2022-12-18T13:01:36;10.40;;;5.55;;
4061;SDS011;2046;47.064;15.456;2022-12-18T13:06:41;9.70;;;5.80;;
4061;SDS011;2046;47.064;15.456;2022-12-18T13:09:11;9.95;;;5.78;;
4061;SDS011;2046;47.064;15.456;2022-12-18T13:14:27;11.25;;;6.07;;
4061;SDS011;2046;47.064;15.456;2022-12-18T13:19:39;9.93;;;6.25;;
4061;SDS011;2046;47.064;15.456;2022-12-18T13:22:12;11.35;;;6.43;;
4061;SDS011;2046;47.064;15.456;2022-12-18T13:24:47;11.25;;;5.93;;
4061;SDS011;2046;47.064;15.456;2022-12-18T13:29:59;9.20;;;6.32;;
4061;SDS011;2046;47.064;15.456;2022-12-18T13:32:26;8.15;;;5.88;;
4061;SDS011;2046;47.064;15.456;2022-12-18T13:37:40;10.82;;;6.55;;
4061;SDS011;2046;47.064;15.456;2022-12-18T13:40:25;9.35;;;6.78;;
4061;SDS011;2046;47.064;15.456;2022-12-18T13:42:54;11.38;;;6.80;;
4061;SDS011;2046;47.064;15.456;2022-12-18T13:45:43;13.20;;;6.43;;
4061;SDS011;2046;47.064;15.456;2022-12-18T13:48:16;9.65;;;6.22;;
4061;SDS011;2046;47.064;15.456;2022-12-18T13:50:52;9.50;;;6.60;;
4061;SDS011;2046;47.064;15.456;2022-12-18T13:53:21;10.93;;;6.53;;
4061;SDS011;2046;47.064;15.456;2022-12-18T13:55:50;9.60;;;6.22;;
4061;SDS011;2046;47.064;15.456;2022-12-18T13:58:17;10.55;;;6.50;;
4061;SDS011;2046;47.064;15.456;2022-12-18T14:00:44;14.98;;;6.43;;
4061;SDS011;2046;47.064;15.456;2022-12-18T14:03:17;9.68;;;6.72;;
4061;SDS011;2046;47.064;15.456;2022-12-18T14:06:01;11.68;;;7.10;;
4061;SDS011;2046;47.064;15.456;2022-12-18T14:08:32;14.40;;;7.18;;
4061;SDS011;2046;47.064;15.456;2022-12-18T14:10:59;9.93;;;5.80;;
4061;SDS011;2046;47.064;15.456;2022-12-18T14:13:28;9.50;;;5.68;;
4061;SDS011;2046;47.064;15.456;2022-12-18T14:15:55;11.02;;;6.60;;
4061;SDS011;2046;47.064;15.456;2022-12-18T14:20:57;9.73;;;6.18;;
4061;SDS011;2046;47.064;15.456;2022-12-18T14:25:51;15.13;;;7.63;;
4061;SDS011;2046;47.064;15.456;2022-12-18T14:28:17;25.45;;;10.93;;
4061;SDS011;2046;47.064;15.456;2022-12-18T14:30:45;50.40;;;14.35;;
4061;SDS011;2046;47.064;15.456;2022-12-18T14:33:33;29.25;;;10.43;;
4061;SDS011;2046;47.064;15.456;2022-12-18T14:36:03;25.88;;;9.38;;
4061;SDS011;2046;47.064;15.456;2022-12-18T14:43:22;32.63;;;12.75;;
4061;SDS011;2046;47.064;15.456;2022-12-18T14:45:49;21.80;;;11.40;;
4061;SDS011;2046;47.064;15.456;2022-12-18T14:48:20;27.73;;;11.07;;
4061;SDS011;2046;47.064;15.456;2022-12-18T14:50:56;24.55;;;12.65;;
4061;SDS011;2046;47.064;15.456;2022-12-18T14:53:32;31.20;;;13.32;;
4061;SDS011;2046;47.064;15.456;2022-12-18T14:55:59;34.33;;;12.25;;
4061;SDS011;2046;47.064;15.456;2022-12-18T14:58:26;31.02;;;11.82;;
4061;SDS011;2046;47.064;15.456;2022-12-18T15:00:54;21.77;;;9.18;;
4061;SDS011;2046;47.064;15.456;2022-12-18T15:03:22;20.75;;;10.52;;
4061;SDS011;2046;47.064;15.456;2022-12-18T15:05:48;25.65;;;10.55;;
4061;SDS011;2046;47.064;15.456;2022-12-18T15:08:31;22.52;;;9.88;;
4061;SDS011;2046;47.064;15.456;2022-12-18T15:11:01;22.55;;;10.48;;
4061;SDS011;2046;47.064;15.456;2022-12-18T15:13:28;23.48;;;10.60;;
4061;SDS011;2046;47.064;15.456;2022-12-18T15:15:56;17.80;;;9.98;;
4061;SDS011;2046;47.064;15.456;2022-12-18T15:18:30;22.55;;;10.25;;
4061;SDS011;2046;47.064;15.456;2022-12-18T15:21:08;23.90;;;10.10;;
4061;SDS011;2046;47.064;15.456;2022-12-18T15:23:46;20.33;;;9.95;;
4061;SDS011;2046;47.064;15.456;2022-12-18T15:26:13;16.88;;;9.80;;
4061;SDS011;2046;47.064;15.456;2022-12-18T15:33:59;14.65;;;9.15;;
4061;SDS011;2046;47.064;15.456;2022-12-18T15:36:30;15.63;;;9.35;;
4061;SDS011;2046;47.064;15.456;2022-12-18T15:38:57;17.70;;;9.02;;
4061;SDS011;2046;47.064;15.456;2022-12-18T15:41:32;16.27;;;9.95;;
4061;SDS011;2046;47.064;15.456;2022-12-18T15:44:03;20.38;;;10.77;;
4061;SDS011;2046;47.064;15.456;2022-12-18T15:46:42;22.30;;;11.40;;
4061;SDS011;2046;47.064;15.456;2022-12-18T15:49:09;16.80;;;9.27;;
4061;SDS011;2046;47.064;15.456;2022-12-18T15:51:36;21.55;;;10.30;;
4061;SDS011;2046;47.064;15.456;2022-12-18T15:54:04;19.77;;;10.70;;
4061;SDS011;2046;47.064;15.456;2022-12-18T15:56:31;16.73;;;9.30;;
4061;SDS011;2046;47.064;15.456;2022-12-18T15:59:17;14.73;;;7.50;;
4061;SDS011;2046;47.064;15.456;2022-12-18T16:01:45;21.40;;;10.52;;
4061;SDS011;2046;47.064;15.456;2022-12-18T16:04:13;17.55;;;10.25;;
4061;SDS011;2046;47.064;15.456;2022-12-18T16:06:40;19.33;;;9.85;;
4061;SDS011;2046;47.064;15.456;2022-12-18T16:09:27;19.73;;;9.90;;
4061;SDS011;2046;47.064;15.456;2022-12-18T16:11:53;18.85;;;11.05;;
4061;SDS011;2046;47.064;15.456;2022-12-18T16:14:21;22.73;;;11.70;;
4061;SDS011;2046;47.064;15.456;2022-12-18T16:16:50;23.42;;;10.23;;
4061;SDS011;2046;47.064;15.456;2022-12-18T16:19:17;27.25;;;13.68;;
4061;SDS011;2046;47.064;15.456;2022-12-18T16:21:45;20.25;;;11.73;;
4061;SDS011;2046;47.064;15.456;2022-12-18T16:24:16;23.98;;;12.60;;
4061;SDS011;2046;47.064;15.456;2022-12-18T16:26:43;23.45;;;12.05;;
4061;SDS011;2046;47.064;15.456;2022-12-18T16:29:10;32.60;;;13.50;;
4061;SDS011;2046;47.064;15.456;2022-12-18T16:31:37;18.75;;;10.90;;
4061;SDS011;2046;47.064;15.456;2022-12-18T16:34:23;20.35;;;10.90;;
4061;SDS011;2046;47.064;15.456;2022-12-18T16:36:54;23.73;;;14.35;;
4061;SDS011;2046;47.064;15.456;2022-12-18T16:39:30;21.13;;;11.50;;
4061;SDS011;2046;47.064;15.456;2022-12-18T16:41:59;19.35;;;11.82;;
4061;SDS011;2046;47.064;15.456;2022-12-18T16:44:30;19.25;;;11.65;;
4061;SDS011;2046;47.064;15.456;2022-12-18T16:47:01;25.88;;;14.85;;
4061;SDS011;2046;47.064;15.456;2022-12-18T16:49:28;40.13;;;22.52;;
4061;SDS011;2046;47.064;15.456;2022-12-18T16:51:56;44.67;;;26.90;;
4061;SDS011;2046;47.064;15.456;2022-12-18T16:54:23;33.17;;;18.83;;
4061;SDS011;2046;47.064;15.456;2022-12-18T16:56:51;32.35;;;14.80;;
4061;SDS011;2046;47.064;15.456;2022-12-18T16:59:17;22.45;;;11.57;;
4061;SDS011;2046;47.064;15.456;2022-12-18T17:01:47;18.35;;;10.77;;
4061;SDS011;2046;47.064;15.456;2022-12-18T17:04:14;19.42;;;11.30;;
4061;SDS011;2046;47.064;15.456;2022-12-18T17:06:41;20.92;;;12.40;;